sensor_id;sensor_type;location;lat;lon;timestamp;pressure;altitude;pressure_sealevel;temperature;humidity
37066;BME280;22981;43.080;25.550;2024-01-10T00:00:44;101276.60;;;-4.88;67.38
37066;BME280;22981;43.080;25.550;2024-01-10T00:03:11;101267.52;;;-4.89;67.39
37066;BME280;22981;43.080;25.550;2024-01-10T00:05:39;101268.53;;;-4.92;67.41
37066;BME280;22981;43.080;25.550;2024-01-10T00:08:07;101265.28;;;-4.97;67.44
37066;BME280;22981;43.080;25.550;2024-01-10T00:10:34;101265.83;;;-4.99;67.42
37066;BME280;22981;43.080;25.550;2024-01-10T00:13:02;101270.81;;;-5.03;67.46
37066;BME280;22981;43.080;25.550;2024-01-10T00:15:29;101273.11;;;-5.06;67.45
37066;BME280;22981;43.080;25.550;2024-01-10T00:17:57;101276.88;;;-5.11;67.49
37066;BME280;22981;43.080;25.550;2024-01-10T00:20:25;101269.18;;;-5.14;67.47
37066;BME280;22981;43.080;25.550;2024-01-10T00:22:52;101275.47;;;-5.18;67.48
37066;BME280;22981;43.080;25.550;2024-01-10T00:25:20;101276.95;;;-5.21;67.47
37066;BME280;22981;43.080;25.550;2024-01-10T00:27:47;101276.24;;;-5.25;67.47
37066;BME280;22981;43.080;25.550;2024-01-10T00:30:15;101275.08;;;-5.28;67.48
37066;BME280;22981;43.080;25.550;2024-01-10T00:32:42;101284.81;;;-5.32;67.51
37066;BME280;22981;43.080;25.550;2024-01-10T00:35:10;101285.83;;;-5.34;67.53
37066;BME280;22981;43.080;25.550;2024-01-10T00:37:37;101287.27;;;-5.37;67.52
37066;BME280;22981;43.080;25.550;2024-01-10T00:40:06;101288.71;;;-5.40;67.52
37066;BME280;22981;43.080;25.550;2024-01-10T00:42:34;101297.14;;;-5.44;67.52
37066;BME280;22981;43.080;25.550;2024-01-10T00:45:01;101298.53;;;-5.45;67.55
37066;BME280;22981;43.080;25.550;2024-01-10T00:47:29;101299.08;;;-5.47;67.56
37066;BME280;22981;43.080;25.550;2024-01-10T00:49:57;101295.30;;;-5.50;67.54
37066;BME280;22981;43.080;25.550;2024-01-10T00:52:24;101291.59;;;-5.55;67.58
37066;BME280;22981;43.080;25.550;2024-01-10T00:54:52;101292.33;;;-5.62;67.62
37066;BME280;22981;43.080;25.550;2024-01-10T00:57:19;101292.16;;;-5.67;67.69
37066;BME280;22981;43.080;25.550;2024-01-10T00:59:47;101295.23;;;-5.68;67.79
37066;BME280;22981;43.080;25.550;2024-01-10T01:02:14;101285.78;;;-5.70;67.77
37066;BME280;22981;43.080;25.550;2024-01-10T01:04:42;101283.71;;;-5.72;67.79
37066;BME280;22981;43.080;25.550;2024-01-10T01:07:10;101285.70;;;-5.77;67.79
37066;BME280;22981;43.080;25.550;2024-01-10T01:09:37;101280.87;;;-5.87;67.93
37066;BME280;22981;43.080;25.550;2024-01-10T01:12:05;101276.95;;;-5.95;67.98
37066;BME280;22981;43.080;25.550;2024-01-10T01:14:32;101275.02;;;-6.00;68.12
37066;BME280;22981;43.080;25.550;2024-01-10T01:17:00;101280.23;;;-6.00;68.17
37066;BME280;22981;43.080;25.550;2024-01-10T01:19:28;101276.27;;;-5.99;68.02
37066;BME280;22981;43.080;25.550;2024-01-10T01:21:55;101277.58;;;-6.09;68.00
37066;BME280;22981;43.080;25.550;2024-01-10T01:24:23;101276.03;;;-6.13;68.16
37066;BME280;22981;43.080;25.550;2024-01-10T01:26:50;101271.66;;;-6.13;68.19
37066;BME280;22981;43.080;25.550;2024-01-10T01:29:20;101273.87;;;-6.14;68.18
37066;BME280;22981;43.080;25.550;2024-01-10T01:31:49;101277.03;;;-6.16;68.12
37066;BME280;22981;43.080;25.550;2024-01-10T01:34:16;101274.09;;;-6.18;68.13
37066;BME280;22981;43.080;25.550;2024-01-10T01:36:44;101275.98;;;-6.22;68.18
37066;BME280;22981;43.080;25.550;2024-01-10T01:39:12;101275.67;;;-6.24;68.20
37066;BME280;22981;43.080;25.550;2024-01-10T01:41:40;101276.98;;;-6.24;68.22
37066;BME280;22981;43.080;25.550;2024-01-10T01:44:07;101272.61;;;-6.24;68.22
37066;BME280;22981;43.080;25.550;2024-01-10T01:46:36;101273.45;;;-6.23;68.25
37066;BME280;22981;43.080;25.550;2024-01-10T01:49:04;101267.78;;;-6.23;68.14
37066;BME280;22981;43.080;25.550;2024-01-10T01:51:32;101262.64;;;-6.24;68.14
37066;BME280;22981;43.080;25.550;2024-01-10T01:54:02;101258.86;;;-6.27;68.17
37066;BME280;22981;43.080;25.550;2024-01-10T01:56:30;101258.06;;;-6.30;68.17
37066;BME280;22981;43.080;25.550;2024-01-10T01:58:57;101255.62;;;-6.33;68.19
37066;BME280;22981;43.080;25.550;2024-01-10T02:01:25;101247.84;;;-6.34;68.20
37066;BME280;22981;43.080;25.550;2024-01-10T02:03:53;101252.50;;;-6.41;68.18
37066;BME280;22981;43.080;25.550;2024-01-10T02:06:22;101257.08;;;-6.46;68.26
37066;BME280;22981;43.080;25.550;2024-01-10T02:08:50;101250.05;;;-6.54;68.33
37066;BME280;22981;43.080;25.550;2024-01-10T02:11:19;101243.41;;;-6.61;68.42
37066;BME280;22981;43.080;25.550;2024-01-10T02:13:47;101249.07;;;-6.62;68.49
37066;BME280;22981;43.080;25.550;2024-01-10T02:16:15;101245.16;;;-6.62;68.48
37066;BME280;22981;43.080;25.550;2024-01-10T02:18:43;101249.07;;;-6.62;68.45
37066;BME280;22981;43.080;25.550;2024-01-10T02:21:10;101246.55;;;-6.63;68.41
37066;BME280;22981;43.080;25.550;2024-01-10T02:23:38;101238.39;;;-6.66;68.40
37066;BME280;22981;43.080;25.550;2024-01-10T02:26:05;101240.28;;;-6.69;68.38
37066;BME280;22981;43.080;25.550;2024-01-10T02:28:33;101229.98;;;-6.72;68.41
37066;BME280;22981;43.080;25.550;2024-01-10T02:31:01;101235.14;;;-6.71;68.38
37066;BME280;22981;43.080;25.550;2024-01-10T02:33:29;101230.44;;;-6.73;68.37
37066;BME280;22981;43.080;25.550;2024-01-10T02:35:56;101233.50;;;-6.73;68.31
37066;BME280;22981;43.080;25.550;2024-01-10T02:38:24;101237.11;;;-6.76;68.33
37066;BME280;22981;43.080;25.550;2024-01-10T02:40:53;101243.20;;;-6.77;68.24
37066;BME280;22981;43.080;25.550;2024-01-10T02:43:22;101239.23;;;-6.86;68.25
37066;BME280;22981;43.080;25.550;2024-01-10T02:45:50;101243.53;;;-6.95;68.33
37066;BME280;22981;43.080;25.550;2024-01-10T02:48:18;101248.62;;;-7.02;68.48
37066;BME280;22981;43.080;25.550;2024-01-10T02:50:45;101248.36;;;-7.06;68.56
37066;BME280;22981;43.080;25.550;2024-01-10T02:53:13;101251.73;;;-7.04;68.63
37066;BME280;22981;43.080;25.550;2024-01-10T02:55:40;101246.86;;;-7.01;68.53
37066;BME280;22981;43.080;25.550;2024-01-10T02:58:08;101245.10;;;-7.01;68.46
37066;BME280;22981;43.080;25.550;2024-01-10T03:00:35;101247.33;;;-7.02;68.46
37066;BME280;22981;43.080;25.550;2024-01-10T03:03:04;101242.55;;;-7.02;68.42
37066;BME280;22981;43.080;25.550;2024-01-10T03:05:31;101248.20;;;-7.03;68.41
37066;BME280;22981;43.080;25.550;2024-01-10T03:07:59;101246.25;;;-7.08;68.43
37066;BME280;22981;43.080;25.550;2024-01-10T03:10:28;101249.05;;;-7.13;68.40
37066;BME280;22981;43.080;25.550;2024-01-10T03:12:56;101242.55;;;-7.23;68.47
37066;BME280;22981;43.080;25.550;2024-01-10T03:15:23;101247.41;;;-7.25;68.53
37066;BME280;22981;43.080;25.550;2024-01-10T03:17:51;101244.34;;;-7.25;68.60
37066;BME280;22981;43.080;25.550;2024-01-10T03:20:19;101245.98;;;-7.22;68.55
37066;BME280;22981;43.080;25.550;2024-01-10T03:22:47;101245.53;;;-7.22;68.52
37066;BME280;22981;43.080;25.550;2024-01-10T03:25:14;101252.11;;;-7.23;68.56
37066;BME280;22981;43.080;25.550;2024-01-10T03:27:42;101252.88;;;-7.21;68.50
37066;BME280;22981;43.080;25.550;2024-01-10T03:30:10;101247.52;;;-7.28;68.39
37066;BME280;22981;43.080;25.550;2024-01-10T03:32:37;101245.64;;;-7.35;68.45
37066;BME280;22981;43.080;25.550;2024-01-10T03:35:05;101243.72;;;-7.42;68.45
37066;BME280;22981;43.080;25.550;2024-01-10T03:37:33;101246.89;;;-7.45;68.59
37066;BME280;22981;43.080;25.550;2024-01-10T03:40:01;101245.44;;;-7.41;68.61
37066;BME280;22981;43.080;25.550;2024-01-10T03:42:29;101248.81;;;-7.39;68.50
37066;BME280;22981;43.080;25.550;2024-01-10T03:44:57;101250.00;;;-7.36;68.46
37066;BME280;22981;43.080;25.550;2024-01-10T03:47:24;101246.36;;;-7.32;68.43
37066;BME280;22981;43.080;25.550;2024-01-10T03:49:52;101245.26;;;-7.26;68.34
37066;BME280;22981;43.080;25.550;2024-01-10T03:52:19;101243.88;;;-7.24;68.25
37066;BME280;22981;43.080;25.550;2024-01-10T03:54:47;101247.78;;;-7.35;68.15
37066;BME280;22981;43.080;25.550;2024-01-10T03:57:15;101241.54;;;-7.41;68.36
37066;BME280;22981;43.080;25.550;2024-01-10T03:59:42;101241.58;;;-7.42;68.44
37066;BME280;22981;43.080;25.550;2024-01-10T04:02:10;101249.58;;;-7.37;68.40
37066;BME280;22981;43.080;25.550;2024-01-10T04:04:38;101252.14;;;-7.35;68.24
37066;BME280;22981;43.080;25.550;2024-01-10T04:07:06;101245.09;;;-7.43;68.13
37066;BME280;22981;43.080;25.550;2024-01-10T04:09:33;101253.77;;;-7.54;68.18
37066;BME280;22981;43.080;25.550;2024-01-10T04:12:01;101252.52;;;-7.66;68.35
37066;BME280;22981;43.080;25.550;2024-01-10T04:14:28;101254.11;;;-7.74;68.50
37066;BME280;22981;43.080;25.550;2024-01-10T04:16:56;101257.16;;;-7.74;68.64
37066;BME280;22981;43.080;25.550;2024-01-10T04:19:23;101261.20;;;-7.67;68.66
37066;BME280;22981;43.080;25.550;2024-01-10T04:21:51;101251.80;;;-7.60;68.58
37066;BME280;22981;43.080;25.550;2024-01-10T04:24:19;101254.75;;;-7.57;68.47
37066;BME280;22981;43.080;25.550;2024-01-10T04:26:46;101259.11;;;-7.58;68.35
37066;BME280;22981;43.080;25.550;2024-01-10T04:29:14;101266.47;;;-7.69;68.36
37066;BME280;22981;43.080;25.550;2024-01-10T04:31:41;101271.12;;;-7.77;68.48
37066;BME280;22981;43.080;25.550;2024-01-10T04:34:09;101270.73;;;-7.78;68.61
37066;BME280;22981;43.080;25.550;2024-01-10T04:36:37;101279.48;;;-7.81;68.56
37066;BME280;22981;43.080;25.550;2024-01-10T04:39:04;101282.05;;;-7.79;68.61
37066;BME280;22981;43.080;25.550;2024-01-10T04:41:32;101279.30;;;-7.76;68.54
37066;BME280;22981;43.080;25.550;2024-01-10T04:43:59;101281.91;;;-7.76;68.49
37066;BME280;22981;43.080;25.550;2024-01-10T04:46:27;101282.32;;;-7.75;68.51
37066;BME280;22981;43.080;25.550;2024-01-10T04:48:55;101279.77;;;-7.76;68.48
37066;BME280;22981;43.080;25.550;2024-01-10T04:51:22;101277.62;;;-7.77;68.54
37066;BME280;22981;43.080;25.550;2024-01-10T04:53:50;101278.17;;;-7.69;68.51
37066;BME280;22981;43.080;25.550;2024-01-10T04:56:18;101283.55;;;-7.62;68.48
37066;BME280;22981;43.080;25.550;2024-01-10T04:58:45;101284.14;;;-7.55;68.39
37066;BME280;22981;43.080;25.550;2024-01-10T05:01:13;101282.66;;;-7.50;68.31
37066;BME280;22981;43.080;25.550;2024-01-10T05:03:41;101281.31;;;-7.49;68.27
37066;BME280;22981;43.080;25.550;2024-01-10T05:06:08;101284.34;;;-7.49;68.28
37066;BME280;22981;43.080;25.550;2024-01-10T05:08:36;101290.84;;;-7.49;68.28
37066;BME280;22981;43.080;25.550;2024-01-10T05:11:04;101288.04;;;-7.55;68.22
37066;BME280;22981;43.080;25.550;2024-01-10T05:13:32;101296.94;;;-7.61;68.30
37066;BME280;22981;43.080;25.550;2024-01-10T05:15:59;101287.91;;;-7.62;68.44
37066;BME280;22981;43.080;25.550;2024-01-10T05:18:27;101292.75;;;-7.65;68.38
37066;BME280;22981;43.080;25.550;2024-01-10T05:20:54;101288.30;;;-7.73;68.37
37066;BME280;22981;43.080;25.550;2024-01-10T05:23:22;101290.69;;;-7.78;68.50
37066;BME280;22981;43.080;25.550;2024-01-10T05:25:50;101291.18;;;-7.81;68.64
37066;BME280;22981;43.080;25.550;2024-01-10T05:28:17;101286.79;;;-7.78;68.74
37066;BME280;22981;43.080;25.550;2024-01-10T05:30:45;101287.38;;;-7.72;68.71
37066;BME280;22981;43.080;25.550;2024-01-10T05:33:12;101288.58;;;-7.69;68.59
37066;BME280;22981;43.080;25.550;2024-01-10T05:35:40;101291.00;;;-7.64;68.57
37066;BME280;22981;43.080;25.550;2024-01-10T05:38:07;101292.47;;;-7.57;68.45
37066;BME280;22981;43.080;25.550;2024-01-10T05:40:35;101294.54;;;-7.55;68.41
37066;BME280;22981;43.080;25.550;2024-01-10T05:43:03;101296.12;;;-7.51;68.38
37066;BME280;22981;43.080;25.550;2024-01-10T05:45:30;101294.32;;;-7.49;68.30
37066;BME280;22981;43.080;25.550;2024-01-10T05:47:59;101302.79;;;-7.44;68.29
37066;BME280;22981;43.080;25.550;2024-01-10T05:50:26;101301.03;;;-7.43;68.19
37066;BME280;22981;43.080;25.550;2024-01-10T05:52:54;101308.17;;;-7.48;68.19
37066;BME280;22981;43.080;25.550;2024-01-10T05:55:22;101302.13;;;-7.49;68.28
37066;BME280;22981;43.080;25.550;2024-01-10T05:57:50;101310.31;;;-7.48;68.26
37066;BME280;22981;43.080;25.550;2024-01-10T06:00:17;101313.94;;;-7.52;68.29
37066;BME280;22981;43.080;25.550;2024-01-10T06:02:47;101311.27;;;-7.50;68.29
37066;BME280;22981;43.080;25.550;2024-01-10T06:05:14;101303.81;;;-7.48;68.22
37066;BME280;22981;43.080;25.550;2024-01-10T06:07:42;101309.75;;;-7.44;68.15
37066;BME280;22981;43.080;25.550;2024-01-10T06:10:10;101312.08;;;-7.48;68.14
37066;BME280;22981;43.080;25.550;2024-01-10T06:12:37;101310.77;;;-7.48;68.20
37066;BME280;22981;43.080;25.550;2024-01-10T06:15:05;101311.05;;;-7.44;68.16
37066;BME280;22981;43.080;25.550;2024-01-10T06:17:33;101312.28;;;-7.43;68.12
37066;BME280;22981;43.080;25.550;2024-01-10T06:20:01;101319.91;;;-7.38;68.14
37066;BME280;22981;43.080;25.550;2024-01-10T06:22:30;101317.23;;;-7.37;68.08
37066;BME280;22981;43.080;25.550;2024-01-10T06:24:58;101322.01;;;-7.36;68.08
37066;BME280;22981;43.080;25.550;2024-01-10T06:27:25;101320.25;;;-7.36;68.12
37066;BME280;22981;43.080;25.550;2024-01-10T06:29:53;101324.02;;;-7.33;68.07
37066;BME280;22981;43.080;25.550;2024-01-10T06:32:20;101328.72;;;-7.31;68.08
37066;BME280;22981;43.080;25.550;2024-01-10T06:34:48;101328.08;;;-7.25;68.03
37066;BME280;22981;43.080;25.550;2024-01-10T06:37:15;101327.44;;;-7.20;68.06
37066;BME280;22981;43.080;25.550;2024-01-10T06:39:43;101327.14;;;-7.13;67.98
37066;BME280;22981;43.080;25.550;2024-01-10T06:42:11;101321.28;;;-7.08;67.87
37066;BME280;22981;43.080;25.550;2024-01-10T06:44:38;101328.14;;;-7.05;67.78
37066;BME280;22981;43.080;25.550;2024-01-10T06:47:06;101329.05;;;-7.06;67.82
37066;BME280;22981;43.080;25.550;2024-01-10T06:49:34;101328.87;;;-7.01;67.85
37066;BME280;22981;43.080;25.550;2024-01-10T06:52:01;101324.25;;;-6.95;67.79
37066;BME280;22981;43.080;25.550;2024-01-10T06:54:29;101321.33;;;-6.97;67.67
37066;BME280;22981;43.080;25.550;2024-01-10T06:56:56;101330.91;;;-6.98;67.81
37066;BME280;22981;43.080;25.550;2024-01-10T06:59:24;101328.23;;;-6.86;67.88
37066;BME280;22981;43.080;25.550;2024-01-10T07:01:53;101330.14;;;-6.79;67.77
37066;BME280;22981;43.080;25.550;2024-01-10T07:04:22;101332.02;;;-6.73;67.63
37066;BME280;22981;43.080;25.550;2024-01-10T07:06:50;101333.20;;;-6.70;67.68
37066;BME280;22981;43.080;25.550;2024-01-10T07:09:18;101330.02;;;-6.56;67.72
37066;BME280;22981;43.080;25.550;2024-01-10T07:11:47;101331.08;;;-6.50;67.48
37066;BME280;22981;43.080;25.550;2024-01-10T07:14:15;101331.06;;;-6.40;67.52
37066;BME280;22981;43.080;25.550;2024-01-10T07:16:42;101325.59;;;-6.23;67.40
37066;BME280;22981;43.080;25.550;2024-01-10T07:19:12;101324.01;;;-6.07;67.19
37066;BME280;22981;43.080;25.550;2024-01-10T07:21:40;101328.16;;;-5.84;67.10
37066;BME280;22981;43.080;25.550;2024-01-10T07:24:08;101326.62;;;-5.69;66.70
37066;BME280;22981;43.080;25.550;2024-01-10T07:26:39;101330.70;;;-5.64;66.58
37066;BME280;22981;43.080;25.550;2024-01-10T07:29:07;101334.33;;;-5.58;66.33
37066;BME280;22981;43.080;25.550;2024-01-10T08:01:54;101332.37;;;-4.71;62.51
37066;BME280;22981;43.080;25.550;2024-01-10T08:04:24;101334.70;;;-4.65;63.29
37066;BME280;22981;43.080;25.550;2024-01-10T08:06:52;101324.99;;;-4.46;63.76
37066;BME280;22981;43.080;25.550;2024-01-10T08:09:19;101328.87;;;-4.11;63.68
37066;BME280;22981;43.080;25.550;2024-01-10T08:11:47;101330.73;;;-3.80;63.75
37066;BME280;22981;43.080;25.550;2024-01-10T08:14:15;101333.47;;;-3.50;63.43
37066;BME280;22981;43.080;25.550;2024-01-10T08:16:43;101338.05;;;-3.38;62.92
37066;BME280;22981;43.080;25.550;2024-01-10T08:19:10;101337.95;;;-3.36;62.83
37066;BME280;22981;43.080;25.550;2024-01-10T13:43:46;101083.34;;;-0.27;51.66
37066;BME280;22981;43.080;25.550;2024-01-10T13:46:14;101081.27;;;-0.16;51.68
37066;BME280;22981;43.080;25.550;2024-01-10T13:48:43;101081.45;;;-0.01;51.56
37066;BME280;22981;43.080;25.550;2024-01-10T13:51:11;101076.61;;;0.11;51.48
37066;BME280;22981;43.080;25.550;2024-01-10T13:53:38;101076.20;;;0.23;51.38
37066;BME280;22981;43.080;25.550;2024-01-10T13:56:06;101069.75;;;0.33;51.21
37066;BME280;22981;43.080;25.550;2024-01-10T13:58:34;101073.48;;;0.36;51.03
37066;BME280;22981;43.080;25.550;2024-01-10T14:01:01;101069.39;;;0.26;51.24
37066;BME280;22981;43.080;25.550;2024-01-10T14:03:29;101074.67;;;0.32;51.45
37066;BME280;22981;43.080;25.550;2024-01-10T14:05:56;101066.47;;;0.47;51.33
37066;BME280;22981;43.080;25.550;2024-01-10T14:08:24;101064.46;;;0.68;50.74
37066;BME280;22981;43.080;25.550;2024-01-10T14:10:52;101064.46;;;0.68;50.74
37066;BME280;22981;43.080;25.550;2024-01-10T14:13:20;101066.61;;;0.57;50.80
37066;BME280;22981;43.080;25.550;2024-01-10T14:18:15;101069.95;;;0.18;51.23
37066;BME280;22981;43.080;25.550;2024-01-10T14:20:43;101068.79;;;0.04;51.57
37066;BME280;22981;43.080;25.550;2024-01-10T14:23:11;101068.89;;;-0.03;51.71
37066;BME280;22981;43.080;25.550;2024-01-10T14:25:38;101073.75;;;-0.10;51.86
37066;BME280;22981;43.080;25.550;2024-01-10T14:28:06;101071.79;;;-0.19;52.08
37066;BME280;22981;43.080;25.550;2024-01-10T14:30:34;101074.91;;;-0.19;52.31
37066;BME280;22981;43.080;25.550;2024-01-10T14:33:01;101070.16;;;-0.09;52.16
37066;BME280;22981;43.080;25.550;2024-01-10T14:35:29;101073.27;;;-0.09;52.02
37066;BME280;22981;43.080;25.550;2024-01-10T14:37:56;101069.78;;;-0.15;52.06
37066;BME280;22981;43.080;25.550;2024-01-10T14:40:24;101068.52;;;-0.28;52.17
37066;BME280;22981;43.080;25.550;2024-01-10T14:42:51;101069.12;;;-0.43;52.43
37066;BME280;22981;43.080;25.550;2024-01-10T14:45:20;101070.23;;;-0.58;52.65
37066;BME280;22981;43.080;25.550;2024-01-10T14:47:49;101080.89;;;-0.72;52.88
37066;BME280;22981;43.080;25.550;2024-01-10T14:50:16;101075.64;;;-0.85;53.11
37066;BME280;22981;43.080;25.550;2024-01-10T14:52:44;101075.26;;;-0.99;53.27
37066;BME280;22981;43.080;25.550;2024-01-10T14:55:12;101072.55;;;-1.10;53.49
37066;BME280;22981;43.080;25.550;2024-01-10T14:57:39;101068.01;;;-1.21;53.68
37066;BME280;22981;43.080;25.550;2024-01-10T15:00:07;101061.34;;;-1.32;53.84
37066;BME280;22981;43.080;25.550;2024-01-10T15:02:36;101060.91;;;-1.39;54.01
37066;BME280;22981;43.080;25.550;2024-01-10T15:05:04;101060.02;;;-1.45;54.13
37066;BME280;22981;43.080;25.550;2024-01-10T15:07:32;101056.11;;;-1.52;54.32
37066;BME280;22981;43.080;25.550;2024-01-10T15:10:00;101054.00;;;-1.60;54.43
37066;BME280;22981;43.080;25.550;2024-01-10T15:12:29;101059.55;;;-1.64;54.59
37066;BME280;22981;43.080;25.550;2024-01-10T15:14:56;101054.73;;;-1.70;54.73
37066;BME280;22981;43.080;25.550;2024-01-10T15:17:27;101052.48;;;-1.77;54.94
37066;BME280;22981;43.080;25.550;2024-01-10T15:19:55;101052.55;;;-1.84;55.12
37066;BME280;22981;43.080;25.550;2024-01-10T15:22:23;101052.92;;;-1.90;55.33
37066;BME280;22981;43.080;25.550;2024-01-10T15:24:50;101054.73;;;-1.97;55.53
37066;BME280;22981;43.080;25.550;2024-01-10T15:27:18;101051.58;;;-2.03;55.71
37066;BME280;22981;43.080;25.550;2024-01-10T15:29:45;101048.41;;;-2.08;55.88
37066;BME280;22981;43.080;25.550;2024-01-10T15:32:13;101052.54;;;-2.11;56.10
37066;BME280;22981;43.080;25.550;2024-01-10T15:34:41;101051.53;;;-2.15;56.31
37066;BME280;22981;43.080;25.550;2024-01-10T15:37:10;101063.27;;;-2.21;56.48
37066;BME280;22981;43.080;25.550;2024-01-10T15:39:42;101058.20;;;-2.24;56.67
37066;BME280;22981;43.080;25.550;2024-01-10T15:42:09;101058.14;;;-2.30;56.79
37066;BME280;22981;43.080;25.550;2024-01-10T15:44:41;101056.77;;;-2.35;56.91
37066;BME280;22981;43.080;25.550;2024-01-10T15:47:09;101058.73;;;-2.39;57.05
37066;BME280;22981;43.080;25.550;2024-01-10T15:49:37;101055.56;;;-2.44;57.14
37066;BME280;22981;43.080;25.550;2024-01-10T15:52:06;101061.47;;;-2.47;57.25
37066;BME280;22981;43.080;25.550;2024-01-10T15:54:33;101058.85;;;-2.55;57.37
37066;BME280;22981;43.080;25.550;2024-01-10T15:57:04;101069.05;;;-2.57;57.49
37066;BME280;22981;43.080;25.550;2024-01-10T15:59:31;101067.00;;;-2.66;57.66
37066;BME280;22981;43.080;25.550;2024-01-10T16:01:59;101075.81;;;-2.74;57.82
37066;BME280;22981;43.080;25.550;2024-01-10T16:04:28;101071.25;;;-2.78;57.86
37066;BME280;22981;43.080;25.550;2024-01-10T16:06:56;101070.86;;;-2.79;57.83
37066;BME280;22981;43.080;25.550;2024-01-10T16:09:23;101072.38;;;-2.82;57.86
37066;BME280;22981;43.080;25.550;2024-01-10T16:11:51;101076.12;;;-2.86;58.02
37066;BME280;22981;43.080;25.550;2024-01-10T16:14:18;101079.28;;;-2.88;58.09
37066;BME280;22981;43.080;25.550;2024-01-10T16:16:46;101073.78;;;-2.91;58.22
37066;BME280;22981;43.080;25.550;2024-01-10T16:19:13;101073.20;;;-2.96;58.38
37066;BME280;22981;43.080;25.550;2024-01-10T16:21:41;101073.87;;;-2.99;58.49
37066;BME280;22981;43.080;25.550;2024-01-10T16:24:09;101072.27;;;-3.02;58.58
37066;BME280;22981;43.080;25.550;2024-01-10T16:26:37;101077.32;;;-3.06;58.73
37066;BME280;22981;43.080;25.550;2024-01-10T16:29:05;101083.31;;;-3.11;58.90
37066;BME280;22981;43.080;25.550;2024-01-10T16:31:33;101075.44;;;-3.18;59.20
37066;BME280;22981;43.080;25.550;2024-01-10T16:34:01;101084.05;;;-3.23;59.46
37066;BME280;22981;43.080;25.550;2024-01-10T16:36:29;101081.33;;;-3.29;59.61
37066;BME280;22981;43.080;25.550;2024-01-10T16:38:56;101082.91;;;-3.34;59.75
37066;BME280;22981;43.080;25.550;2024-01-10T16:41:24;101086.08;;;-3.36;59.87
37066;BME280;22981;43.080;25.550;2024-01-10T16:43:51;101088.03;;;-3.39;59.97
37066;BME280;22981;43.080;25.550;2024-01-10T16:46:19;101084.57;;;-3.40;60.05
37066;BME280;22981;43.080;25.550;2024-01-10T16:48:47;101086.92;;;-3.42;60.14
37066;BME280;22981;43.080;25.550;2024-01-10T16:51:14;101088.88;;;-3.46;60.18
37066;BME280;22981;43.080;25.550;2024-01-10T16:53:42;101089.52;;;-3.49;60.27
37066;BME280;22981;43.080;25.550;2024-01-10T16:56:10;101090.52;;;-3.52;60.36
37066;BME280;22981;43.080;25.550;2024-01-10T16:58:37;101096.23;;;-3.53;60.39
37066;BME280;22981;43.080;25.550;2024-01-10T17:01:05;101095.95;;;-3.55;60.38
37066;BME280;22981;43.080;25.550;2024-01-10T17:03:32;101096.30;;;-3.61;60.46
37066;BME280;22981;43.080;25.550;2024-01-10T17:06:00;101094.37;;;-3.73;60.66
37066;BME280;22981;43.080;25.550;2024-01-10T17:08:28;101095.23;;;-3.96;60.93
37066;BME280;22981;43.080;25.550;2024-01-10T17:10:55;101101.13;;;-4.15;61.28
37066;BME280;22981;43.080;25.550;2024-01-10T17:13:23;101096.33;;;-4.23;61.56
37066;BME280;22981;43.080;25.550;2024-01-10T17:15:50;101092.87;;;-4.23;61.66
37066;BME280;22981;43.080;25.550;2024-01-10T17:18:18;101095.38;;;-4.22;61.68
37066;BME280;22981;43.080;25.550;2024-01-10T17:20:45;101095.86;;;-4.22;61.66
37066;BME280;22981;43.080;25.550;2024-01-10T17:23:13;101089.95;;;-4.26;61.80
37066;BME280;22981;43.080;25.550;2024-01-10T17:25:41;101089.01;;;-4.25;61.86
37066;BME280;22981;43.080;25.550;2024-01-10T17:28:08;101092.91;;;-4.32;61.90
37066;BME280;22981;43.080;25.550;2024-01-10T17:30:38;101093.11;;;-4.44;62.10
37066;BME280;22981;43.080;25.550;2024-01-10T17:33:06;101089.23;;;-4.52;62.27
37066;BME280;22981;43.080;25.550;2024-01-10T17:35:36;101092.81;;;-4.62;62.45
37066;BME280;22981;43.080;25.550;2024-01-10T17:38:04;101091.72;;;-4.67;62.54
37066;BME280;22981;43.080;25.550;2024-01-10T17:40:33;101092.91;;;-4.72;62.61
37066;BME280;22981;43.080;25.550;2024-01-10T17:43:01;101092.44;;;-4.72;62.76
37066;BME280;22981;43.080;25.550;2024-01-10T17:45:28;101081.08;;;-4.71;62.75
37066;BME280;22981;43.080;25.550;2024-01-10T17:47:56;101087.52;;;-4.69;62.72
37066;BME280;22981;43.080;25.550;2024-01-10T17:50:23;101088.36;;;-4.69;62.68
37066;BME280;22981;43.080;25.550;2024-01-10T17:52:51;101082.61;;;-4.75;62.72
37066;BME280;22981;43.080;25.550;2024-01-10T17:55:19;101084.56;;;-4.79;62.83
37066;BME280;22981;43.080;25.550;2024-01-10T17:57:46;101088.27;;;-4.83;62.91
37066;BME280;22981;43.080;25.550;2024-01-10T18:00:15;101085.73;;;-4.93;62.99
37066;BME280;22981;43.080;25.550;2024-01-10T18:02:42;101080.48;;;-5.00;63.11
37066;BME280;22981;43.080;25.550;2024-01-10T18:05:10;101078.02;;;-5.04;63.17
37066;BME280;22981;43.080;25.550;2024-01-10T18:07:37;101070.70;;;-5.06;63.21
37066;BME280;22981;43.080;25.550;2024-01-10T18:10:05;101073.78;;;-5.06;63.20
37066;BME280;22981;43.080;25.550;2024-01-10T18:12:34;101075.65;;;-5.08;63.27
37066;BME280;22981;43.080;25.550;2024-01-10T18:15:02;101083.95;;;-5.09;63.31
37066;BME280;22981;43.080;25.550;2024-01-10T18:17:29;101079.19;;;-5.09;63.36
37066;BME280;22981;43.080;25.550;2024-01-10T18:19:57;101081.86;;;-5.11;63.34
37066;BME280;22981;43.080;25.550;2024-01-10T18:22:24;101079.58;;;-5.17;63.40
37066;BME280;22981;43.080;25.550;2024-01-10T18:24:52;101076.76;;;-5.30;63.47
37066;BME280;22981;43.080;25.550;2024-01-10T18:27:20;101081.44;;;-5.45;63.61
37066;BME280;22981;43.080;25.550;2024-01-10T18:29:47;101085.45;;;-5.55;63.82
37066;BME280;22981;43.080;25.550;2024-01-10T18:32:15;101077.63;;;-5.55;63.93
37066;BME280;22981;43.080;25.550;2024-01-10T18:34:43;101078.00;;;-5.54;63.94
37066;BME280;22981;43.080;25.550;2024-01-10T18:37:12;101077.48;;;-5.52;63.92